States of Jersey

Home Log in

Channel Islands Terminal Aerodrome Forecasts (TAFs) issued Saturday, 18 November 2017

Jersey Airport - EGJJ

180457Z 1806/1815 VRB05KT 9999 SCT020 BECMG 1806/1808 26008KT BECMG 1812/1814 BKN020=

Guernsey Airport - EGJB

180457Z 1806/1815 VRB05KT 9999 SCT020 BECMG 1806/1808 26008KT BECMG 1811/1813 BKN020=

Alderney Airport - EGJA

180457Z 1807/1815 Nil